.
WxDataArchive / Data Records for 2008-12-04
2008-12-03 December 2008 2008-12-05

Data Records for Thursday, 04 December 2008

Time	Temp	Chill	HIndex	Humid	Dewpt	 Wind 	HiWind	WindDir	Rain 	Barom 
-----	----	-----	------	-----	-----	------	------	-------	-----	----- 
00:00	34.0	34.0	34.0	94	32.5	2	6	248	0.00	29.912 
00:05	34.0	34.0	34.0	94	32.5	1	3	248	0.01	29.913 
00:10	33.8	33.8	33.8	94	32.3	1	5	270	0.00	29.916 
00:15	33.7	33.7	33.7	94	32.2	1	3	225	0.00	29.920 
00:20	33.5	33.5	33.5	94	32.0	1	3	248	0.00	29.919 
00:25	33.5	33.5	33.5	94	32.0	1	4	270	0.00	29.920 
00:30	33.5	33.5	33.5	94	32.0	1	4	248	0.00	29.926 
00:35	33.4	33.4	33.4	94	31.9	1	3	248	0.00	29.928 
00:40	33.4	33.4	33.4	94	31.9	1	4	248	0.00	29.932 
00:45	33.4	33.4	33.4	95	32.1	1	3	248	0.01	29.932 
00:50	33.5	33.5	33.5	95	32.2	2	5	248	0.00	29.936 
00:55	33.5	33.5	33.5	95	32.2	2	4	248	0.00	29.939 
01:00	33.5	33.5	33.5	95	32.2	3	7	270	0.00	29.938 
01:05	33.4	33.4	33.4	95	32.1	1	3	292	0.00	29.942 
01:10	33.4	33.4	33.4	95	32.1	2	6	248	0.00	29.951 
01:15	33.4	33.4	33.4	95	32.1	2	4	270	0.00	29.951 
01:20	33.4	33.4	33.4	95	32.1	2	6	270	0.00	29.953 
01:25	33.4	33.4	33.4	94	31.9	3	5	270	0.00	29.953 
01:30	33.2	33.2	33.2	94	31.7	3	12	270	0.00	29.952 
01:35	33.1	33.1	33.1	94	31.6	2	5	270	0.00	29.953 
01:40	33.1	33.1	33.1	94	31.6	2	6	270	0.00	29.955 
01:45	33.1	33.1	33.1	93	31.3	2	4	248	0.00	29.957 
01:50	33.1	33.1	33.1	93	31.3	2	5	270	0.00	29.964 
01:55	33.1	33.1	33.1	93	31.3	2	4	270	0.00	29.967 
02:00	33.1	33.1	33.1	93	31.3	2	4	292	0.00	29.967 
02:05	32.9	32.9	32.9	92	30.8	2	4	270	0.00	29.968 
02:10	32.8	32.8	32.8	92	30.7	3	12	270	0.00	29.968 
02:15	32.7	32.7	32.7	91	30.4	3	5	270	0.00	29.970 
02:20	32.7	32.7	32.7	90	30.1	3	6	270	0.00	29.975 
02:25	32.7	32.7	32.7	89	29.8	2	4	315	0.00	29.974 
02:30	32.7	32.7	32.7	89	29.8	1	4	270	0.00	29.980 
02:35	32.8	32.8	32.8	89	29.9	2	4	248	0.00	29.985 
02:40	32.7	32.7	32.7	89	29.8	3	10	315	0.00	29.985 
02:45	32.5	32.5	32.5	89	29.6	2	5	270	0.00	29.987 
02:50	32.4	32.4	32.4	88	29.3	3	5	270	0.00	29.995 
02:55	32.2	32.2	32.2	87	28.8	3	9	270	0.00	29.997 
03:00	32.2	32.2	32.2	86	28.5	3	7	270	0.00	30.002 
03:05	32.1	32.1	32.1	85	28.1	2	4	315	0.00	30.005 
03:10	32.1	32.1	32.1	85	28.1	2	5	270	0.00	30.011 
03:15	31.9	31.9	31.9	85	27.9	3	6	270	0.00	30.017 
03:20	31.6	31.6	31.6	85	27.6	3	7	270	0.00	30.016 
03:25	31.5	31.5	31.5	85	27.5	2	6	292	0.00	30.019 
03:30	31.3	31.3	31.3	85	27.3	2	5	315	0.00	30.021 
03:35	31.2	31.2	31.2	85	27.2	3	7	248	0.00	30.020 
03:40	31.0	31.0	31.0	85	27.0	2	5	315	0.00	30.021 
03:45	30.9	30.9	30.9	85	26.9	2	5	315	0.00	30.032 
03:50	30.9	30.9	30.9	85	26.9	2	9	292	0.00	30.032 
03:55	30.7	30.7	30.7	84	26.4	2	7	270	0.00	30.027 
04:00	30.7	30.7	30.7	84	26.4	2	5	270	0.00	30.030 
04:05	30.6	30.6	30.6	84	26.4	2	6	315	0.00	30.033 
04:10	30.4	30.4	30.4	84	26.2	2	6	270	0.00	30.035 
04:15	30.3	30.3	30.3	83	25.8	2	6	292	0.00	30.038 
04:20	30.3	30.3	30.3	83	25.8	2	6	292	0.00	30.040 
04:25	30.1	30.1	30.1	83	25.6	2	10	292	0.00	30.043 
04:30	30.1	30.1	30.1	82	25.3	2	6	270	0.00	30.045 
04:35	30.0	30.0	30.0	82	25.2	2	6	338	0.00	30.048 
04:40	29.8	29.8	29.8	82	25.0	2	4	270	0.00	30.048 
04:45	29.8	29.8	29.8	81	24.7	2	7	315	0.00	30.050 
04:50	29.7	29.7	29.7	81	24.6	3	7	292	0.00	30.050 
04:55	29.5	29.5	29.5	80	24.1	2	6	270	0.00	30.053 
05:00	29.4	29.4	29.4	80	24.0	2	4	270	0.00	30.052 
05:05	29.4	29.4	29.4	79	23.7	2	6	270	0.00	30.062 
05:10	29.3	29.3	29.3	79	23.6	1	5	270	0.00	30.061 
05:15	29.3	29.3	29.3	77	23.0	2	6	315	0.00	30.061 
05:20	29.1	29.1	29.1	76	22.5	2	6	315	0.00	30.060 
05:25	29.0	29.0	29.0	76	22.4	1	4	292	0.00	30.069 
05:30	29.0	29.0	29.0	76	22.4	2	5	270	0.00	30.073 
05:35	29.0	29.0	29.0	76	22.4	1	4	270	0.00	30.074 
05:40	28.8	28.8	28.8	74	21.6	2	6	270	0.00	30.076 
05:45	28.7	28.7	28.7	74	21.5	3	7	270	0.00	30.073 
05:50	28.5	28.5	28.5	74	21.3	2	6	270	0.00	30.082 
05:55	28.4	28.4	28.4	74	21.2	1	4	270	0.00	30.083 
06:00	28.4	28.4	28.4	73	20.9	2	5	315	0.00	30.089 
06:05	28.2	28.2	28.2	72	20.4	2	6	270	0.00	30.088 
06:10	28.2	28.2	28.2	72	20.4	2	5	270	0.00	30.087 
06:15	28.1	28.1	28.1	72	20.3	3	7	270	0.00	30.098 
06:20	28.1	28.1	28.1	72	20.3	2	4	248	0.00	30.099 
06:25	27.9	27.9	27.9	72	20.1	1	5	248	0.00	30.102 
06:30	27.9	27.9	27.9	73	20.4	1	4	292	0.00	30.110 
06:35	27.8	27.8	27.8	72	20.0	1	6	270	0.00	30.110 
06:40	27.6	27.6	27.6	71	19.4	2	6	315	0.00	30.115 
06:45	27.6	27.6	27.6	71	19.4	2	5	315	0.00	30.116 
06:50	27.5	27.5	27.5	71	19.4	2	4	270	0.00	30.121 
06:55	27.5	27.5	27.5	71	19.4	1	4	315	0.00	30.122 
07:00	27.3	27.3	27.3	70	18.8	1	3	270	0.00	30.130 
07:05	27.2	27.2	27.2	70	18.7	1	3	270	0.00	30.131 
07:10	27.2	27.2	27.2	69	18.4	2	4	270	0.00	30.133 
07:15	27.2	27.2	27.2	69	18.4	1	5	270	0.00	30.134 
07:20	27.0	27.0	27.0	69	18.2	2	5	270	0.00	30.139 
07:25	27.0	27.0	27.0	68	17.9	1	3	270	0.00	30.143 
07:30	26.9	26.9	26.9	68	17.8	1	6	315	0.00	30.147 
07:35	26.7	26.7	26.7	67	17.2	2	6	338	0.00	30.147 
07:40	26.6	26.6	26.6	66	16.8	2	6	315	0.00	30.150 
07:45	26.7	26.7	26.7	67	17.2	1	3	248	0.00	30.156 
07:50	26.7	26.7	26.7	69	17.9	1	4	248	0.00	30.161 
07:55	26.7	26.7	26.7	69	17.9	1	4	248	0.00	30.166 
08:00	26.7	26.7	26.7	69	17.9	1	4	248	0.00	30.169 
08:05	26.7	26.7	26.7	69	17.9	1	4	270	0.00	30.175 
08:10	26.6	26.6	26.6	69	17.8	1	5	270	0.00	30.176 
08:15	26.6	26.6	26.6	69	17.8	2	6	248	0.00	30.179 
08:20	26.4	26.4	26.4	69	17.6	2	4	270	0.00	30.179 
08:25	26.4	26.4	26.4	69	17.6	2	4	248	0.00	30.180 
08:30	26.4	26.4	26.4	71	18.3	1	3	270	0.00	30.179 
08:35	26.4	26.4	26.4	71	18.3	1	5	270	0.00	30.180 
08:40	26.3	26.3	26.3	72	18.5	2	5	270	0.00	30.182 
08:45	26.3	26.3	26.3	72	18.5	1	3	248	0.00	30.187 
08:50	26.3	26.3	26.3	72	18.5	2	4	270	0.00	30.187 
08:55	26.1	26.1	26.1	72	18.3	2	4	248	0.00	30.191 
09:00	26.1	26.1	26.1	73	18.7	2	5	270	0.00	30.194 
09:05	26.1	26.1	26.1	73	18.7	2	5	270	0.00	30.194 
09:10	26.0	26.0	26.0	72	18.2	2	5	270	0.00	30.198 
09:15	26.0	26.0	26.0	72	18.2	2	3	270	0.00	30.199 
09:20	26.0	26.0	26.0	72	18.2	2	7	270	0.00	30.199 
09:25	26.0	26.0	26.0	72	18.2	1	4	248	0.00	30.200 
09:30	26.0	26.0	26.0	72	18.2	2	4	248	0.00	30.206 
09:35	26.0	26.0	26.0	71	17.9	2	5	270	0.00	30.207 
09:40	26.0	26.0	26.0	70	17.6	1	5	270	0.00	30.210 
09:45	26.0	26.0	26.0	70	17.6	2	3	248	0.00	30.213 
09:50	25.8	25.8	25.8	68	16.7	2	7	248	0.00	30.213 
09:55	25.7	25.7	25.7	69	17.0	2	5	270	0.00	30.214 
10:00	25.8	25.8	25.8	69	17.1	1	4	270	0.00	30.220 
10:05	25.7	25.7	25.7	69	17.0	2	5	270	0.00	30.226 
10:10	25.7	25.7	25.7	69	17.0	2	5	270	0.00	30.230 
10:15	25.6	25.6	25.6	68	16.5	3	9	270	0.00	30.231 
10:20	25.4	25.4	25.4	69	16.7	3	11	270	0.00	30.232 
10:25	25.3	25.3	25.3	69	16.6	3	7	270	0.00	30.242 
10:30	25.1	25.1	25.1	69	16.4	2	4	270	0.00	30.246 
10:35	25.0	25.0	25.0	69	16.3	2	4	270	0.00	30.247 
10:40	24.8	24.8	24.8	69	16.1	2	5	270	0.00	30.248 
10:45	24.8	24.8	24.8	69	16.1	2	6	292	0.00	30.249 
10:50	24.8	24.8	24.8	67	15.4	2	3	338	0.00	30.250 
10:55	25.0	25.0	25.0	67	15.6	3	5	270	0.00	30.250 
11:00	25.0	25.0	25.0	69	16.3	2	5	270	0.00	30.252 
11:05	25.1	25.1	25.1	69	16.4	2	5	338	0.00	30.256 
11:10	25.0	25.0	25.0	67	15.6	3	6	270	0.00	30.255 
11:15	25.0	25.0	25.0	68	16.0	2	6	270	0.00	30.258 
11:20	25.0	25.0	25.0	68	16.0	2	4	270	0.00	30.261 
11:25	25.0	25.0	25.0	68	16.0	2	5	270	0.00	30.262 
11:30	24.8	24.8	24.8	68	15.8	2	5	270	0.00	30.261 
11:35	25.1	25.1	25.1	68	16.1	1	6	270	0.00	30.262 
11:40	25.3	25.3	25.3	66	15.6	2	5	270	0.00	30.258 
11:45	25.3	25.3	25.3	67	15.9	2	4	292	0.00	30.262 
11:50	25.1	25.1	25.1	67	15.7	2	6	270	0.00	30.261 
11:55	25.1	25.1	25.1	67	15.7	1	5	270	0.00	30.257 
12:00	25.3	25.3	25.3	66	15.6	1	4	292	0.00	30.261 
12:05	25.3	25.3	25.3	66	15.6	2	6	270	0.00	30.261 
12:10	25.3	25.3	25.3	68	16.2	1	4	270	0.00	30.261 
12:15	25.3	25.3	25.3	67	15.9	2	6	270	0.00	30.260 
12:20	25.3	25.3	25.3	66	15.6	2	5	270	0.00	30.258 
12:25	25.4	25.4	25.4	65	15.3	2	7	270	0.00	30.257 
12:30	25.3	25.3	25.3	66	15.6	2	6	270	0.00	30.255 
12:35	25.1	25.1	25.1	67	15.7	2	5	338	0.00	30.254 
12:40	25.1	25.1	25.1	68	16.1	1	4	292	0.00	30.251 
12:45	25.1	25.1	25.1	68	16.1	2	7	270	0.00	30.255 
12:50	25.3	25.3	25.3	69	16.6	1	4	248	0.00	30.255 
12:55	25.3	25.3	25.3	69	16.6	1	3	270	0.00	30.254 
13:00	25.4	25.4	25.4	68	16.3	2	5	338	0.00	30.253 
13:05	25.7	25.7	25.7	65	15.6	2	5	270	0.00	30.253 
13:10	25.7	25.7	25.7	64	15.2	2	5	338	0.00	30.258 
13:15	25.7	25.7	25.7	64	15.2	2	6	248	0.00	30.255 
13:20	25.6	25.6	25.6	65	15.5	2	9	338	0.00	30.253 
13:25	25.6	25.6	25.6	65	15.5	2	5	338	0.00	30.253 
13:30	25.6	25.6	25.6	65	15.5	2	6	338	0.00	30.251 
13:35	25.6	25.6	25.6	65	15.5	2	5	270	0.00	30.251 
13:40	25.7	25.7	25.7	65	15.6	1	4	270	0.00	30.250 
13:45	26.0	26.0	26.0	65	15.9	1	3	315	0.00	30.249 
13:50	25.8	25.8	25.8	65	15.7	2	5	270	0.00	30.249 
13:55	25.7	25.7	25.7	65	15.6	2	6	270	0.00	30.250 
14:00	25.7	25.7	25.7	64	15.2	2	4	270	0.00	30.250 
14:05	25.8	25.8	25.8	64	15.3	1	5	270	0.00	30.252 
14:10	25.7	25.7	25.7	63	14.9	2	4	292	0.00	30.252 
14:15	25.7	25.7	25.7	64	15.2	1	5	315	0.00	30.252 
14:20	25.8	25.8	25.8	64	15.3	1	5	0	0.00	30.254 
14:25	25.7	25.7	25.7	64	15.2	3	7	292	0.00	30.261 
14:30	25.6	25.6	25.6	64	15.1	3	5	270	0.00	30.262 
14:35	25.6	25.6	25.6	64	15.1	2	5	248	0.00	30.264 
14:40	25.4	25.4	25.4	63	14.6	1	4	270	0.00	30.266 
14:45	25.4	25.4	25.4	63	14.6	2	4	292	0.00	30.269 
14:50	25.3	25.3	25.3	64	14.9	2	6	315	0.00	30.269 
14:55	25.1	25.1	25.1	65	15.0	2	4	315	0.00	30.268 
15:00	25.0	25.0	25.0	64	14.6	1	5	338	0.00	30.268 
15:05	25.0	25.0	25.0	63	14.2	1	3	315	0.00	30.269 
15:10	25.1	25.1	25.1	64	14.7	1	3	270	0.00	30.277 
15:15	25.1	25.1	25.1	65	15.0	1	3	292	0.00	30.281 
15:20	25.1	25.1	25.1	65	15.0	1	3	248	0.00	30.283 
15:25	25.1	25.1	25.1	65	15.0	2	4	270	0.00	30.284 
15:30	25.0	25.0	25.0	65	14.9	2	4	270	0.00	30.284 
15:35	25.0	25.0	25.0	66	15.3	1	5	270	0.00	30.286 
15:40	24.8	24.8	24.8	66	15.1	1	4	0	0.00	30.287 
15:45	24.8	24.8	24.8	65	14.7	2	5	270	0.00	30.284 
15:50	24.8	24.8	24.8	65	14.7	2	4	270	0.00	30.288 
15:55	24.8	24.8	24.8	65	14.7	1	3	248	0.00	30.287 
16:00	24.8	24.8	24.8	64	14.4	1	5	338	0.00	30.290 
16:05	24.7	24.7	24.7	64	14.3	2	4	338	0.00	30.294 
16:10	24.5	24.5	24.5	66	14.8	2	3	292	0.00	30.298 
16:15	24.4	24.4	24.4	66	14.7	2	4	248	0.00	30.302 
16:20	24.4	24.4	24.4	67	15.0	1	3	248	0.00	30.301 
16:25	24.2	24.2	24.2	67	14.8	2	9	270	0.00	30.302 
16:30	24.2	24.2	24.2	66	14.5	1	4	270	0.00	30.302 
16:35	24.2	24.2	24.2	66	14.5	2	4	270	0.00	30.303 
16:40	24.4	24.4	24.4	65	14.3	1	4	270	0.00	30.306 
16:45	24.4	24.4	24.4	65	14.3	1	4	270	0.00	30.309 
16:50	24.2	24.2	24.2	65	14.2	1	4	248	0.00	30.310 
16:55	24.2	24.2	24.2	65	14.2	1	5	248	0.00	30.312 
17:00	24.1	24.1	24.1	66	14.4	0	1	338	0.00	30.315 
17:05	24.1	24.1	24.1	66	14.4	0	2	338	0.00	30.317 
17:10	24.1	24.1	24.1	65	14.1	1	3	225	0.00	30.318 
17:15	24.1	24.1	24.1	65	14.1	1	4	270	0.00	30.320 
17:20	24.1	24.1	24.1	65	14.1	1	3	270	0.00	30.321 
17:25	24.1	24.1	24.1	66	14.4	0	2	270	0.00	30.322 
17:30	24.1	24.1	24.1	65	14.1	1	4	270	0.00	30.325 
17:35	24.1	24.1	24.1	66	14.4	1	3	248	0.00	30.328 
17:40	24.1	24.1	24.1	66	14.4	1	2	248	0.00	30.331 
17:45	24.2	24.2	24.2	66	14.5	0	2	248	0.00	30.333 
17:50	24.2	24.2	24.2	65	14.2	1	5	248	0.00	30.334 
17:55	24.2	24.2	24.2	65	14.2	2	4	270	0.00	30.335 
18:00	24.2	24.2	24.2	65	14.2	1	4	248	0.00	30.336 
18:05	24.1	24.1	24.1	65	14.1	1	2	270	0.00	30.341 
18:10	24.1	24.1	24.1	65	14.1	0	2	270	0.00	30.345 
18:15	24.1	24.1	24.1	66	14.4	0	3	270	0.00	30.347 
18:20	24.1	24.1	24.1	65	14.1	1	4	270	0.00	30.348 
18:25	24.1	24.1	24.1	66	14.4	1	3	270	0.00	30.349 
18:30	24.1	24.1	24.1	66	14.4	1	4	270	0.00	30.351 
18:35	24.1	24.1	24.1	65	14.1	1	5	248	0.00	30.351 
18:40	24.1	24.1	24.1	66	14.4	1	2	292	0.00	30.353 
18:45	24.1	24.1	24.1	66	14.4	1	4	248	0.00	30.355 
18:50	24.1	24.1	24.1	66	14.4	1	5	248	0.00	30.359 
18:55	24.1	24.1	24.1	65	14.1	1	4	248	0.00	30.359 
19:00	23.9	23.9	23.9	66	14.2	1	3	270	0.00	30.357 
19:05	23.9	23.9	23.9	66	14.2	0	2	270	0.00	30.357 
19:10	23.8	23.8	23.8	66	14.1	1	3	338	0.00	30.358 
19:15	23.8	23.8	23.8	66	14.1	1	5	270	0.00	30.357 
19:20	23.6	23.6	23.6	66	13.9	1	3	248	0.00	30.360 
19:25	23.6	23.6	23.6	66	13.9	0	2	248	0.00	30.360 
19:30	23.6	23.6	23.6	66	13.9	0	3	338	0.00	30.360 
19:35	23.6	23.6	23.6	65	13.6	0	3	338	0.00	30.363 
19:40	23.6	23.6	23.6	65	13.6	0	2	270	0.00	30.365 
19:45	23.6	23.6	23.6	65	13.6	0	1	270	0.00	30.367 
19:50	23.6	23.6	23.6	65	13.6	0	4	270	0.00	30.367 
19:55	23.6	23.6	23.6	65	13.6	0	2	270	0.00	30.366 
20:00	23.6	23.6	23.6	65	13.6	1	3	270	0.00	30.367 
20:05	23.6	23.6	23.6	64	13.2	0	2	270	0.00	30.368 
20:10	23.6	23.6	23.6	65	13.6	1	2	292	0.00	30.367 
20:15	23.6	23.6	23.6	65	13.6	0	2	248	0.00	30.368 
20:20	23.6	23.6	23.6	65	13.6	0	1	248	0.00	30.367 
20:25	23.6	23.6	23.6	65	13.6	0	1	248	0.00	30.368 
20:30	23.6	23.6	23.6	63	12.9	1	3	248	0.00	30.366 
20:35	23.6	23.6	23.6	62	12.5	1	3	248	0.00	30.368 
20:40	23.6	23.6	23.6	61	12.2	1	3	338	0.00	30.368 
20:45	23.6	23.6	23.6	61	12.2	0	3	202	0.00	30.368 
20:50	23.5	23.5	23.5	62	12.4	0	1	248	0.00	30.369 
20:55	23.5	23.5	23.5	61	12.1	1	3	248	0.00	30.370 
21:00	23.5	23.5	23.5	64	13.1	1	5	202	0.00	30.368 
21:05	23.5	23.5	23.5	65	13.5	1	3	248	0.00	30.370 
21:10	23.3	23.3	23.3	65	13.3	2	5	248	0.00	30.370 
21:15	23.2	23.2	23.2	65	13.2	2	3	248	0.00	30.372 
21:20	23.2	23.2	23.2	65	13.2	2	4	248	0.00	30.375 
21:25	23.0	23.0	23.0	66	13.4	1	3	248	0.00	30.372 
21:30	23.0	23.0	23.0	66	13.4	0	3	248	0.00	30.373 
21:35	23.0	23.0	23.0	65	13.0	1	5	248	0.00	30.373 
21:40	23.0	23.0	23.0	65	13.0	3	5	248	0.00	30.371 
21:45	22.9	22.9	22.9	65	12.9	2	9	248	0.00	30.372 
21:50	22.7	22.7	22.7	65	12.7	1	5	270	0.00	30.370 
21:55	22.7	22.7	22.7	65	12.7	2	5	248	0.00	30.370 
22:00	22.4	22.4	22.4	65	12.4	1	6	248	0.00	30.370 
22:05	22.1	22.1	22.1	66	12.5	1	3	248	0.00	30.372 
22:10	21.8	21.8	21.8	67	12.6	1	3	248	0.00	30.373 
22:15	21.6	21.6	21.6	67	12.4	2	5	248	0.00	30.375 
22:20	21.4	21.4	21.4	68	12.5	1	4	270	0.00	30.377 
22:25	21.3	21.3	21.3	68	12.4	2	6	248	0.00	30.381 
22:30	21.1	21.1	21.1	69	12.5	2	6	248	0.00	30.383 
22:35	21.1	21.1	21.1	69	12.5	1	3	248	0.00	30.386 
22:40	21.0	21.0	21.0	69	12.5	2	5	270	0.00	30.384 
22:45	20.8	20.8	20.8	69	12.3	2	5	248	0.00	30.382 
22:50	20.5	20.5	20.5	69	12.0	1	5	248	0.00	30.384 
22:55	20.3	20.3	20.3	69	11.8	1	4	248	0.00	30.388 
23:00	20.0	20.0	20.0	69	11.5	2	5	270	0.00	30.388 
23:05	19.9	19.9	19.9	69	11.4	2	6	270	0.00	30.388 
23:10	19.7	19.7	19.7	70	11.5	2	7	248	0.00	30.388 
23:15	19.5	19.5	19.5	70	11.3	1	3	248	0.00	30.387 
23:20	19.4	19.4	19.4	70	11.2	2	5	248	0.00	30.385 
23:25	19.2	19.2	19.2	71	11.4	1	5	225	0.00	30.384 
23:30	19.1	19.1	19.1	71	11.3	1	5	248	0.00	30.384 
23:35	18.9	18.9	18.9	72	11.4	2	4	248	0.00	30.383 
23:40	18.8	18.8	18.8	72	11.3	2	6	248	0.00	30.384 
23:45	18.6	18.6	18.6	73	11.4	1	4	248	0.00	30.385 
23:50	18.4	18.4	18.4	73	11.2	1	4	270	0.00	30.388 
23:55	18.3	18.3	18.3	74	11.4	2	6	270	0.00	30.389 

CoCoRaHS
IN-AL-39
A2 Web Hosting
Creative Commons License
GoDaddy
search engine by freefind advanced

loaded 2018-11-17 12:18:36 • last modified 2010-11-18 10:43:29
Privacy PolicyDisclaimer
• wx.awcolley.com is powered by PmWiki v.2002016 •
• all content (unless otherwise noted) © 2018 A W Colley